createdAt,value
2018-05-02T00:02:08.069Z,100870.17
2018-05-02T00:04:38.852Z,100871.06
2018-05-02T00:07:09.564Z,100874.97
2018-05-02T00:09:40.276Z,100877.17
2018-05-02T00:12:11.080Z,100879.79
2018-05-02T00:14:41.857Z,100881.99
2018-05-02T00:17:12.609Z,100881.98
2018-05-02T00:19:43.337Z,100880.67
2018-05-02T00:22:14.098Z,100881.11
2018-05-02T00:24:44.916Z,100880.20
2018-05-02T00:27:15.618Z,100873.19
2018-05-02T00:29:46.347Z,100870.98
2018-05-02T00:32:17.056Z,100859.59
2018-05-02T00:34:47.872Z,100862.22
2018-05-02T00:37:18.542Z,100862.20
2018-05-02T00:39:49.297Z,100870.94
2018-05-02T00:42:20.063Z,100868.73
2018-05-02T00:44:50.783Z,100877.51
2018-05-02T00:47:21.518Z,100876.63
2018-05-02T00:49:52.287Z,100877.05
2018-05-02T00:52:23.003Z,100884.05
2018-05-02T00:54:53.799Z,100888.89
2018-05-02T00:57:24.485Z,100899.38
2018-05-02T00:59:55.804Z,100902.01
2018-05-02T01:02:26.603Z,100903.31
2018-05-02T01:04:57.732Z,100903.72
2018-05-02T01:07:28.563Z,100901.05
2018-05-02T01:09:59.860Z,100900.61
2018-05-02T01:12:30.573Z,100893.61
2018-05-02T01:15:01.336Z,100901.12
2018-05-02T01:17:32.104Z,100898.02
2018-05-02T01:20:02.832Z,100893.59
2018-05-02T01:22:33.578Z,100888.77
2018-05-02T01:25:04.343Z,100893.16
2018-05-02T01:27:35.153Z,100902.31
2018-05-02T01:30:05.903Z,100905.77
2018-05-02T01:32:36.094Z,100904.43
2018-05-02T01:35:06.992Z,100906.16
2018-05-02T01:37:37.668Z,100896.06
2018-05-02T01:40:08.420Z,100892.59
2018-05-02T01:42:39.175Z,100890.39
2018-05-02T01:45:10.548Z,100896.94
2018-05-02T01:47:41.346Z,100900.84
2018-05-02T01:50:12.164Z,100904.77
2018-05-02T01:52:42.880Z,100899.03
2018-05-02T01:55:13.670Z,100898.11
2018-05-02T01:57:44.412Z,100900.25
2018-05-02T02:00:15.192Z,100902.41
2018-05-02T02:02:45.713Z,100905.04
2018-05-02T02:05:16.199Z,100915.53
2018-05-02T02:07:46.952Z,100915.06
2018-05-02T02:10:17.736Z,100913.75
2018-05-02T02:12:48.464Z,100915.01
2018-05-02T02:15:19.237Z,100908.05
2018-05-02T02:17:49.972Z,100904.52
2018-05-02T02:20:21.112Z,100904.07
2018-05-02T02:22:51.914Z,100901.02
2018-05-02T02:25:22.686Z,100909.75
2018-05-02T02:27:53.454Z,100907.56
2018-05-02T02:30:24.253Z,100908.38
2018-05-02T02:32:55.029Z,100903.57
2018-05-02T02:35:25.774Z,100908.80
2018-05-02T02:37:56.629Z,100911.00
2018-05-02T02:40:27.568Z,100903.52
2018-05-02T02:42:58.319Z,100897.38
2018-05-02T02:45:29.108Z,100891.34
2018-05-02T02:47:59.813Z,100895.34
2018-05-02T02:50:29.952Z,100891.41
2018-05-02T02:53:00.744Z,100890.16
2018-05-02T02:55:31.551Z,100897.09
2018-05-02T02:58:02.360Z,100892.27
2018-05-02T03:00:33.087Z,100889.94
2018-05-02T03:03:03.907Z,100886.77
2018-05-02T03:05:34.622Z,100881.00
2018-05-02T03:08:05.408Z,100892.75
2018-05-02T03:10:36.146Z,100894.91
2018-05-02T03:13:06.884Z,100894.81
2018-05-02T03:15:37.978Z,100890.87
2018-05-02T03:18:08.513Z,100896.54
2018-05-02T03:20:39.250Z,100896.91
2018-05-02T03:23:09.912Z,100900.42
2018-05-02T03:25:40.646Z,100899.98
2018-05-02T03:28:11.343Z,100910.92
2018-05-02T03:30:42.134Z,100921.00
2018-05-02T03:33:12.812Z,100919.70
2018-05-02T03:35:43.632Z,100923.62
2018-05-02T03:38:14.443Z,100926.75
2018-05-02T03:40:45.205Z,100928.09
2018-05-02T03:43:16.067Z,100923.80
2018-05-02T03:45:46.949Z,100926.52
2018-05-02T03:48:17.683Z,100926.15
2018-05-02T03:50:48.390Z,100921.87
2018-05-02T03:53:19.187Z,100928.53
2018-05-02T03:55:49.945Z,100927.30
2018-05-02T03:58:20.759Z,100929.09
2018-05-02T04:01:02.499Z,100932.23
2018-05-02T04:03:44.109Z,100931.90
2018-05-02T04:06:34.686Z,100934.69
2018-05-02T04:09:06.213Z,100938.77
2018-05-02T04:11:37.037Z,100945.92
2018-05-02T04:14:07.782Z,100949.05
2018-05-02T04:16:38.559Z,100953.45
2018-05-02T04:19:11.979Z,100956.96
2018-05-02T04:21:42.762Z,100943.78
2018-05-02T04:24:13.543Z,100943.75
2018-05-02T04:26:44.306Z,100946.34
2018-05-02T04:29:14.903Z,100947.16
2018-05-02T04:31:45.594Z,100947.94
2018-05-02T04:34:16.361Z,100940.41
2018-05-02T04:36:47.192Z,100939.88
2018-05-02T04:39:17.911Z,100941.58
2018-05-02T04:41:48.743Z,100942.39
2018-05-02T04:44:19.397Z,100948.45
2018-05-02T04:46:50.123Z,100938.69
2018-05-02T04:49:20.898Z,100950.99
2018-05-02T04:51:51.617Z,100951.87
2018-05-02T04:54:22.334Z,100937.42
2018-05-02T04:56:53.020Z,100936.50
2018-05-02T04:59:23.148Z,100938.77
2018-05-02T05:01:53.875Z,100944.91
2018-05-02T05:04:24.639Z,100935.25
2018-05-02T05:06:55.510Z,100946.36
2018-05-02T05:09:26.369Z,100955.25
2018-05-02T05:11:57.250Z,100960.53
2018-05-02T05:14:27.940Z,100969.09
2018-05-02T05:16:58.676Z,100968.68
2018-05-02T05:19:29.416Z,100963.92
2018-05-02T05:22:00.089Z,100957.58
2018-05-02T05:24:30.802Z,100948.59
2018-05-02T05:27:01.534Z,100946.30
2018-05-02T05:29:32.257Z,100965.14
2018-05-02T05:32:02.978Z,100967.97
2018-05-02T05:34:33.714Z,100973.43
2018-05-02T05:37:04.458Z,100973.62
2018-05-02T05:39:35.162Z,100975.04
2018-05-02T05:42:05.853Z,100966.83
2018-05-02T05:44:36.573Z,100954.11
2018-05-02T05:47:07.271Z,100961.34
2018-05-02T05:49:38.044Z,100963.55
2018-05-02T05:52:08.755Z,100966.06
2018-05-02T05:54:39.499Z,100958.38
2018-05-02T05:57:10.270Z,100955.38
2018-05-02T05:59:40.990Z,100961.62
2018-05-02T06:02:11.723Z,100960.09
2018-05-02T06:04:42.417Z,100962.36
2018-05-02T06:07:14.349Z,100964.37
2018-05-02T06:09:46.417Z,100955.54
2018-05-02T06:12:17.166Z,100952.13
2018-05-02T06:14:47.842Z,100953.62
2018-05-02T06:17:18.773Z,100950.67
2018-05-02T06:19:49.514Z,100953.86
2018-05-02T06:22:20.249Z,100950.42
2018-05-02T06:24:52.109Z,100957.72
2018-05-02T06:27:22.959Z,100962.05
2018-05-02T06:29:53.822Z,100957.45
2018-05-02T06:32:24.579Z,100964.77
2018-05-02T06:34:55.358Z,100965.72
2018-05-02T06:37:26.034Z,100964.67
2018-05-02T06:39:56.803Z,100972.36
2018-05-02T06:42:27.453Z,100968.70
2018-05-02T06:44:58.260Z,100973.48
2018-05-02T06:47:28.904Z,100964.53
2018-05-02T06:50:00.070Z,100965.08
2018-05-02T06:52:30.779Z,100967.41
2018-05-02T06:55:01.491Z,100966.38
2018-05-02T06:57:32.245Z,100958.17
2018-05-02T07:00:02.996Z,100957.32
2018-05-02T07:02:33.705Z,100949.15
2018-05-02T07:05:04.456Z,100954.52
2018-05-02T07:07:35.165Z,100953.38
2018-05-02T07:10:05.938Z,100952.91
2018-05-02T07:12:36.645Z,100953.51
2018-05-02T07:15:07.323Z,100960.70
2018-05-02T07:17:38.082Z,100963.42
2018-05-02T07:20:08.806Z,100969.92
2018-05-02T07:22:39.574Z,100965.70
2018-05-02T07:25:10.297Z,100963.67
2018-05-02T07:27:41.050Z,100961.66
2018-05-02T07:30:11.793Z,100956.88
2018-05-02T07:32:42.637Z,100959.61
2018-05-02T07:35:13.306Z,100955.47
2018-05-02T07:37:44.037Z,100972.08
2018-05-02T07:40:14.798Z,100972.10
2018-05-02T07:42:45.538Z,100973.40
2018-05-02T07:45:16.244Z,100970.39
2018-05-02T07:47:46.950Z,100969.12
2018-05-02T07:50:17.695Z,100960.20
2018-05-02T07:52:48.368Z,100955.22
2018-05-02T07:55:19.691Z,100953.54
2018-05-02T07:57:50.348Z,100950.61
2018-05-02T08:00:20.534Z,100945.21
2018-05-02T08:02:52.345Z,100940.30
2018-05-02T08:05:23.047Z,100942.26
2018-05-02T08:07:53.798Z,100940.12
2018-05-02T08:10:24.482Z,100938.77
2018-05-02T08:12:55.205Z,100942.06
2018-05-02T08:15:25.880Z,100942.75
2018-05-02T08:17:56.547Z,100933.93
2018-05-02T08:20:27.275Z,100925.25
2018-05-02T08:22:58.007Z,100929.12
2018-05-02T08:25:28.711Z,100931.45
2018-05-02T08:27:59.477Z,100928.29
2018-05-02T08:30:30.238Z,100930.75
2018-05-02T08:33:00.872Z,100936.22
2018-05-02T08:35:31.606Z,100928.30
2018-05-02T08:38:02.322Z,100930.75
2018-05-02T08:40:33.086Z,100935.67
2018-05-02T08:43:03.781Z,100934.49
2018-05-02T08:45:34.559Z,100925.73
2018-05-02T08:48:05.280Z,100927.89
2018-05-02T08:50:35.968Z,100927.48
2018-05-02T08:53:06.716Z,100923.39
2018-05-02T08:55:37.414Z,100929.32
2018-05-02T08:58:08.149Z,100934.89
2018-05-02T09:00:38.937Z,100923.27
2018-05-02T09:03:09.698Z,100926.34
2018-05-02T09:05:40.405Z,100919.49
2018-05-02T09:08:11.055Z,100913.39
2018-05-02T09:10:41.757Z,100910.05
2018-05-02T09:13:12.462Z,100909.01
2018-05-02T09:15:43.201Z,100904.00
2018-05-02T09:18:13.933Z,100902.94
2018-05-02T09:20:44.641Z,100906.57
2018-05-02T09:23:15.371Z,100897.91
2018-05-02T09:25:46.105Z,100893.60
2018-05-02T09:28:16.849Z,100894.66
2018-05-02T09:30:47.567Z,100892.44
2018-05-02T09:33:18.335Z,100888.97
2018-05-02T09:35:49.065Z,100877.37
2018-05-02T09:38:19.805Z,100877.70
2018-05-02T09:40:50.498Z,100876.17
2018-05-02T09:43:21.232Z,100879.48
2018-05-02T09:45:51.993Z,100876.28
2018-05-02T09:48:22.709Z,100872.17
2018-05-02T09:50:53.408Z,100866.52
2018-05-02T09:53:24.161Z,100856.75
2018-05-02T09:55:54.905Z,100858.39
2018-05-02T09:58:25.668Z,100863.92
2018-05-02T10:00:56.428Z,100861.83
2018-05-02T10:03:27.133Z,100856.22
2018-05-02T10:05:57.824Z,100856.33
2018-05-02T10:08:28.564Z,100844.17
2018-05-02T10:10:59.329Z,100840.15
2018-05-02T10:13:30.063Z,100841.27
2018-05-02T10:16:00.811Z,100840.80
2018-05-02T10:18:31.600Z,100850.20
2018-05-02T10:21:02.285Z,100840.67
2018-05-02T10:23:33.136Z,100841.70
2018-05-02T10:26:04.721Z,100832.63
2018-05-02T10:28:35.460Z,100832.52
2018-05-02T10:31:06.221Z,100826.69
2018-05-02T10:33:36.929Z,100829.55
2018-05-02T10:36:07.661Z,100820.95
2018-05-02T10:38:38.177Z,100800.78
2018-05-02T10:41:08.983Z,100801.25
2018-05-02T10:43:39.693Z,100804.73
2018-05-02T10:46:10.421Z,100806.78
2018-05-02T10:48:41.128Z,100803.51
2018-05-02T10:51:11.861Z,100799.94
2018-05-02T10:53:42.619Z,100796.23
2018-05-02T10:56:13.373Z,100795.14
2018-05-02T10:58:44.601Z,100797.59
2018-05-02T11:01:15.795Z,100797.39
2018-05-02T11:03:46.304Z,100794.91
2018-05-02T11:06:17.012Z,100781.21
2018-05-02T11:08:47.746Z,100771.94
2018-05-02T11:11:18.501Z,100783.97
2018-05-02T11:13:49.232Z,100778.86
2018-05-02T11:16:20.088Z,100782.86
2018-05-02T11:18:50.784Z,100796.08
2018-05-02T11:21:21.574Z,100792.20
2018-05-02T11:23:52.284Z,100782.02
2018-05-02T11:26:23.052Z,100772.03
2018-05-02T11:28:53.779Z,100757.84
2018-05-02T11:31:24.545Z,100762.57
2018-05-02T11:33:55.230Z,100771.85
2018-05-02T11:36:25.820Z,100776.84
2018-05-02T11:38:56.515Z,100777.97
2018-05-02T11:41:27.367Z,100776.63
2018-05-02T11:43:58.044Z,100769.13
2018-05-02T11:46:28.772Z,100752.73
2018-05-02T11:48:59.508Z,100747.44
2018-05-02T11:51:30.192Z,100737.91
2018-05-02T11:54:00.916Z,100717.01
2018-05-02T11:56:31.674Z,100710.11
2018-05-02T11:59:02.363Z,100721.51
2018-05-02T12:01:33.108Z,100712.56
2018-05-02T12:04:03.846Z,100716.27
2018-05-02T12:06:34.620Z,100716.36
2018-05-02T12:09:06.331Z,100703.69
2018-05-02T12:11:37.064Z,100702.66
2018-05-02T12:14:07.853Z,100699.16
2018-05-02T12:16:38.613Z,100700.72
2018-05-02T12:19:09.346Z,100689.11
2018-05-02T12:21:40.162Z,100674.13
2018-05-02T12:24:10.924Z,100669.77
2018-05-02T12:26:41.654Z,100671.04
2018-05-02T12:29:12.378Z,100663.79
2018-05-02T12:31:43.143Z,100657.45
2018-05-02T12:34:13.883Z,100647.65
2018-05-02T12:36:44.644Z,100644.08
2018-05-02T12:39:15.407Z,100637.88
2018-05-02T12:41:46.102Z,100631.08
2018-05-02T12:44:16.878Z,100638.03
2018-05-02T12:46:47.621Z,100641.55
2018-05-02T12:49:18.355Z,100636.98
2018-05-02T12:51:49.106Z,100643.17
2018-05-02T12:54:19.879Z,100644.00
2018-05-02T12:56:50.590Z,100643.27
2018-05-02T12:59:21.310Z,100632.89
2018-05-02T13:01:52.095Z,100625.96
2018-05-02T13:04:22.827Z,100617.77
2018-05-02T13:06:53.617Z,100595.95
2018-05-02T13:09:24.381Z,100591.68
2018-05-02T13:11:56.259Z,100595.48
2018-05-02T13:14:27.875Z,100601.16
2018-05-02T13:16:59.075Z,100604.27
2018-05-02T13:19:31.492Z,100595.00
2018-05-02T13:22:02.303Z,100597.99
2018-05-02T13:36:15.976Z,100563.84
2018-05-02T13:38:47.034Z,100555.17
2018-05-02T13:41:17.776Z,100556.22
2018-05-02T13:43:50.043Z,100554.72
2018-05-02T13:46:21.336Z,100550.42
2018-05-02T13:48:52.128Z,100542.30
2018-05-02T13:51:23.121Z,100542.94
2018-05-02T13:53:53.927Z,100528.80
2018-05-02T13:56:24.856Z,100543.22
2018-05-02T13:58:55.677Z,100526.02
2018-05-02T14:01:26.443Z,100515.21
2018-05-02T14:03:57.184Z,100520.50
2018-05-02T14:06:27.954Z,100514.56
2018-05-02T14:08:58.779Z,100499.39
2018-05-02T14:11:29.514Z,100512.25
2018-05-02T14:14:00.296Z,100499.40
2018-05-02T14:16:31.057Z,100500.67
2018-05-02T14:19:01.919Z,100507.61
2018-05-02T14:21:32.610Z,100502.59
2018-05-02T14:24:03.340Z,100498.61
2018-05-02T14:26:34.296Z,100499.50
2018-05-02T14:29:06.263Z,100496.15
2018-05-02T14:31:37.478Z,100494.11
2018-05-02T14:34:09.119Z,100492.26
2018-05-02T14:36:40.111Z,100495.20
2018-05-02T14:39:10.895Z,100498.59
2018-05-02T14:41:41.743Z,100504.01
2018-05-02T14:44:12.515Z,100507.11
2018-05-02T14:47:13.203Z,100492.80
2018-05-02T14:49:41.557Z,100485.64
2018-05-02T14:52:09.900Z,100490.20
2018-05-02T14:54:38.275Z,100482.62
2018-05-02T14:57:06.648Z,100481.38
2018-05-02T14:59:34.988Z,100475.66
2018-05-02T15:02:04.734Z,100469.92
2018-05-02T15:04:33.081Z,100464.24
2018-05-02T15:07:02.911Z,100469.06
2018-05-02T15:09:31.500Z,100472.34
2018-05-02T15:12:00.588Z,100471.78
2018-05-02T15:14:28.893Z,100462.25
2018-05-02T15:16:57.283Z,100470.70
2018-05-02T15:19:26.483Z,100465.34
2018-05-02T15:21:55.647Z,100470.56
2018-05-02T15:24:24.087Z,100472.86
2018-05-02T15:26:52.565Z,100449.71
2018-05-02T15:29:20.960Z,100461.51
2018-05-02T15:31:50.911Z,100465.53
2018-05-02T15:34:19.284Z,100461.67
2018-05-02T15:36:47.686Z,100461.08
2018-05-02T15:39:17.024Z,100462.66
2018-05-02T15:41:45.522Z,100454.56
2018-05-02T15:44:13.936Z,100455.73
2018-05-02T15:46:42.632Z,100451.25
2018-05-02T15:49:11.057Z,100446.03
2018-05-02T15:51:39.597Z,100442.11
2018-05-02T15:54:08.059Z,100451.34
2018-05-02T15:56:37.432Z,100446.02
2018-05-02T15:59:06.022Z,100446.53
2018-05-02T16:01:34.491Z,100454.17
2018-05-02T16:04:04.175Z,100447.20
2018-05-02T16:06:33.309Z,100448.97
2018-05-02T16:09:01.939Z,100436.53
2018-05-02T16:11:30.426Z,100427.80
2018-05-02T16:14:00.119Z,100429.70
2018-05-02T16:16:29.504Z,100438.42
2018-05-02T16:18:58.577Z,100429.59
2018-05-02T16:21:26.895Z,100431.11
2018-05-02T16:26:30.819Z,100428.64
2018-05-02T16:29:00.283Z,100426.94
2018-05-02T16:31:30.259Z,100429.58
2018-05-02T16:33:59.629Z,100427.34
2018-05-02T16:36:29.804Z,100423.20
2018-05-02T16:38:59.321Z,100415.56
2018-05-02T16:41:28.459Z,100416.19
2018-05-02T16:43:56.888Z,100409.30
2018-05-02T16:46:25.254Z,100412.38
2018-05-02T16:48:53.607Z,100412.28
2018-05-02T16:51:22.403Z,100413.61
2018-05-02T16:53:51.862Z,100413.67
2018-05-02T16:56:20.444Z,100413.28
2018-05-02T16:58:49.860Z,100407.31
2018-05-02T17:01:18.668Z,100405.40
2018-05-02T17:03:47.896Z,100397.86
2018-05-02T17:06:21.643Z,100405.34
2018-05-02T17:08:52.042Z,100400.89
2018-05-02T17:11:20.469Z,100401.04
2018-05-02T17:13:49.761Z,100402.02
2018-05-02T17:16:19.668Z,100401.15
2018-05-02T17:18:50.454Z,100397.50
2018-05-02T17:21:18.793Z,100393.84
2018-05-02T17:23:48.189Z,100387.44
2018-05-02T17:26:17.499Z,100385.48
2018-05-02T17:28:47.043Z,100384.67
2018-05-02T17:31:16.081Z,100386.95
2018-05-02T17:33:44.718Z,100382.02
2018-05-02T17:36:13.786Z,100381.29
2018-05-02T17:38:42.568Z,100380.11
2018-05-02T17:41:10.983Z,100375.70
2018-05-02T17:43:39.357Z,100372.66
2018-05-02T17:46:07.704Z,100376.83
2018-05-02T17:48:36.078Z,100374.73
2018-05-02T17:51:04.442Z,100377.32
2018-05-02T17:53:33.542Z,100389.78
2018-05-02T17:56:02.318Z,100383.61
2018-05-02T17:58:31.127Z,100386.51
2018-05-02T18:00:59.636Z,100394.59
2018-05-02T18:03:28.030Z,100390.77
2018-05-02T18:05:56.958Z,100394.08
2018-05-02T18:08:26.102Z,100400.15
2018-05-02T18:10:54.436Z,100396.64
2018-05-02T18:13:24.443Z,100397.80
2018-05-02T18:15:52.857Z,100401.06
2018-05-02T18:18:28.152Z,100404.53
2018-05-02T18:20:57.344Z,100398.81
2018-05-02T18:23:26.330Z,100398.42
2018-05-02T18:25:54.701Z,100400.94
2018-05-02T18:28:23.154Z,100397.13
2018-05-02T18:30:51.906Z,100398.68
2018-05-02T18:33:21.677Z,100402.81
2018-05-02T18:35:50.094Z,100400.51
2018-05-02T18:38:19.205Z,100408.14
2018-05-02T18:40:48.368Z,100407.36
2018-05-02T18:43:16.754Z,100405.64
2018-05-02T18:45:45.087Z,100412.44
2018-05-02T18:48:13.429Z,100415.44
2018-05-02T18:50:45.386Z,100416.00
2018-05-02T18:53:15.574Z,100413.48
2018-05-02T18:55:44.056Z,100416.69
2018-05-02T18:58:16.638Z,100411.70
2018-05-02T19:00:45.039Z,100404.59
2018-05-02T19:03:14.154Z,100399.45
2018-05-02T19:05:43.189Z,100395.69
2018-05-02T19:08:11.578Z,100394.27
2018-05-02T19:10:41.044Z,100390.91
2018-05-02T19:13:10.168Z,100386.84
2018-05-02T19:15:38.531Z,100392.94
2018-05-02T19:18:12.479Z,100393.16
2018-05-02T19:20:40.784Z,100396.11
2018-05-02T19:23:09.941Z,100396.70
2018-05-02T19:25:43.781Z,100398.16
2018-05-02T19:28:14.049Z,100394.56
2018-05-02T19:30:42.421Z,100392.97
2018-05-02T19:33:16.382Z,100384.33
2018-05-02T19:35:44.840Z,100375.16
2018-05-02T19:38:15.657Z,100375.77
2018-05-02T19:40:49.383Z,100367.78
2018-05-02T19:43:23.329Z,100362.72
2018-05-02T19:45:52.413Z,100357.81
2018-05-02T19:48:20.860Z,100356.27
2018-05-02T19:50:55.654Z,100355.47
2018-05-02T19:53:24.140Z,100360.99
2018-05-02T19:55:52.676Z,100352.80
2018-05-02T19:58:22.225Z,100361.39
2018-05-02T20:00:57.167Z,100351.81
2018-05-02T20:03:25.553Z,100352.54
2018-05-02T20:05:53.969Z,100359.46
2018-05-02T20:08:27.769Z,100354.95
2018-05-02T20:11:01.770Z,100342.75
2018-05-02T20:13:39.413Z,100346.43
2018-05-02T20:16:09.565Z,100345.22
2018-05-02T20:18:39.361Z,100344.41
2018-05-02T20:21:08.327Z,100344.00
2018-05-02T20:23:37.999Z,100341.72
2018-05-02T20:26:07.053Z,100341.51
2018-05-02T20:28:36.983Z,100337.05
2018-05-02T20:31:07.781Z,100324.08
2018-05-02T20:33:36.509Z,100322.69
2018-05-02T20:36:04.873Z,100323.80
2018-05-02T20:38:33.443Z,100319.45
2018-05-02T20:41:01.799Z,100322.37
2018-05-02T20:43:30.917Z,100318.04
2018-05-02T20:45:59.278Z,100313.58
2018-05-02T20:48:34.489Z,100308.26
2018-05-02T20:51:05.002Z,100309.81
2018-05-02T20:53:34.151Z,100308.55
2018-05-02T20:56:03.081Z,100301.83
2018-05-02T20:58:33.614Z,100299.81
2018-05-02T21:01:03.847Z,100290.31
2018-05-02T21:03:33.009Z,100289.91
2018-05-02T21:06:02.297Z,100279.00
2018-05-02T21:08:31.659Z,100265.72
2018-05-02T21:11:01.371Z,100249.08
2018-05-02T21:13:30.505Z,100247.58
2018-05-02T21:15:58.877Z,100235.74
2018-05-02T21:18:27.211Z,100235.34
2018-05-02T21:20:55.542Z,100235.56
2018-05-02T21:23:24.241Z,100241.86
2018-05-02T21:25:52.630Z,100260.23
2018-05-02T21:28:20.991Z,100280.41
2018-05-02T21:30:49.594Z,100301.14
2018-05-02T21:33:19.067Z,100317.43
2018-05-02T21:35:48.404Z,100337.69
2018-05-02T21:38:16.745Z,100354.99
2018-05-02T21:40:48.514Z,100371.42
2018-05-02T21:43:17.175Z,100389.44
2018-05-02T21:45:45.929Z,100360.92
2018-05-02T21:48:15.062Z,100345.48
2018-05-02T21:50:44.376Z,100355.09
2018-05-02T21:53:12.712Z,100350.17
2018-05-02T21:55:44.120Z,100320.98
2018-05-02T21:58:12.459Z,100307.17
2018-05-02T22:00:40.789Z,100323.69
2018-05-02T22:03:09.172Z,100317.73
2018-05-02T22:05:37.496Z,100308.17
2018-05-02T22:08:05.852Z,100302.77
2018-05-02T22:10:34.988Z,100318.97
2018-05-02T22:13:07.368Z,100321.53
2018-05-02T22:15:36.642Z,100315.34
2018-05-02T22:18:05.728Z,100307.92
2018-05-02T22:20:35.076Z,100276.86
2018-05-02T22:23:03.407Z,100284.81
2018-05-02T22:25:33.116Z,100256.73
2018-05-02T22:28:01.459Z,100281.33
2018-05-02T22:30:29.779Z,100293.06
2018-05-02T22:32:58.140Z,100276.74
2018-05-02T22:35:27.272Z,100271.08
2018-05-02T22:37:55.591Z,100282.22
2018-05-02T22:40:23.957Z,100279.88
2018-05-02T22:42:52.295Z,100285.77
2018-05-02T22:45:20.666Z,100303.75
2018-05-02T22:47:48.986Z,100295.22
2018-05-02T22:50:17.332Z,100289.61
2018-05-02T22:52:45.688Z,100299.66
2018-05-02T22:55:14.067Z,100312.14
2018-05-02T22:57:42.373Z,100310.19
2018-05-02T23:00:10.748Z,100306.13
2018-05-02T23:02:39.089Z,100309.31
2018-05-02T23:05:07.412Z,100311.06
2018-05-02T23:07:35.768Z,100320.73
2018-05-02T23:10:04.119Z,100331.72
2018-05-02T23:12:33.209Z,100322.91
2018-05-02T23:15:02.339Z,100328.08
2018-05-02T23:17:30.672Z,100331.89
2018-05-02T23:19:59.760Z,100340.12
2018-05-02T23:22:28.131Z,100315.13
2018-05-02T23:24:56.503Z,100313.09
2018-05-02T23:27:24.847Z,100304.49
2018-05-02T23:29:53.221Z,100296.66
2018-05-02T23:32:22.559Z,100278.19
2018-05-02T23:34:50.908Z,100286.12
2018-05-02T23:37:19.303Z,100314.48
2018-05-02T23:39:48.040Z,100344.89
2018-05-02T23:42:17.122Z,100352.19
2018-05-02T23:44:46.262Z,100350.78
2018-05-02T23:47:14.616Z,100341.45
2018-05-02T23:49:42.954Z,100355.65
2018-05-02T23:52:12.094Z,100351.94
2018-05-02T23:54:41.219Z,100332.50
2018-05-02T23:57:09.547Z,100318.40
2018-05-02T23:59:38.312Z,100312.61
